createdAt,value
2022-12-17T00:02:33.728Z,99231.75
2022-12-17T00:05:21.210Z,99241.41
2022-12-17T00:08:14.962Z,99227.53
2022-12-17T00:11:01.193Z,99230.22
2022-12-17T00:13:47.737Z,99251.91
2022-12-17T00:16:34.472Z,99249.25
2022-12-17T00:19:20.950Z,99253.69
2022-12-17T00:22:07.257Z,99253.59
2022-12-17T00:24:52.943Z,99263.22
2022-12-17T00:27:42.858Z,99257.13
2022-12-17T00:30:32.085Z,99257.06
2022-12-17T00:33:19.300Z,99264.06
2022-12-17T00:36:13.165Z,99272.72
2022-12-17T00:38:59.510Z,99272.75
2022-12-17T00:41:47.261Z,99267.50
2022-12-17T00:44:35.808Z,99261.44
2022-12-17T00:47:22.151Z,99262.25
2022-12-17T00:50:09.345Z,99255.28
2022-12-17T00:52:56.640Z,99258.69
2022-12-17T00:55:44.019Z,99258.69
2022-12-17T00:58:30.462Z,99251.66
2022-12-17T01:01:21.924Z,99257.78
2022-12-17T01:04:08.918Z,99264.72
2022-12-17T01:07:16.517Z,99256.03
2022-12-17T01:10:05.243Z,99256.84
2022-12-17T01:12:51.871Z,99250.03
2022-12-17T01:15:40.524Z,99243.88
2022-12-17T01:18:28.315Z,99251.75
2022-12-17T01:21:17.739Z,99258.66
2022-12-17T01:24:06.229Z,99269.09
2022-12-17T01:26:53.592Z,99263.13
2022-12-17T01:29:43.005Z,99263.09
2022-12-17T01:32:32.386Z,99264.00
2022-12-17T01:35:21.862Z,99256.94
2022-12-17T01:38:09.301Z,99244.81
2022-12-17T01:40:56.970Z,99262.13
2022-12-17T01:43:57.038Z,99243.78
2022-12-17T01:46:46.843Z,99249.06
2022-12-17T01:49:37.186Z,99260.41
2022-12-17T01:52:25.193Z,99259.59
2022-12-17T01:55:13.837Z,99258.72
2022-12-17T01:58:00.686Z,99250.00
2022-12-17T02:00:47.633Z,99246.50
2022-12-17T02:03:37.775Z,99250.00
2022-12-17T02:06:25.710Z,99253.59
2022-12-17T06:17:25.280Z,99262.66
2022-12-17T06:20:09.686Z,99265.91
2022-12-17T06:22:55.159Z,99262.16
2022-12-17T06:25:41.018Z,99265.25
2022-12-17T06:28:27.989Z,99262.22
2022-12-17T06:31:14.430Z,99264.38
2022-12-17T06:34:00.525Z,99266.53
2022-12-17T06:36:46.272Z,99267.84
2022-12-17T06:39:32.299Z,99269.22
2022-12-17T06:42:18.246Z,99283.63
2022-12-17T06:45:04.203Z,99278.00
2022-12-17T06:47:49.831Z,99268.06
2022-12-17T06:50:36.072Z,99269.50
2022-12-17T06:53:24.114Z,99271.00
2022-12-17T06:56:11.453Z,99273.38
2022-12-17T06:58:57.362Z,99283.75
2022-12-17T07:01:43.883Z,99284.34
2022-12-17T07:04:30.424Z,99277.91
2022-12-17T07:07:18.178Z,99271.53
2022-12-17T07:10:05.919Z,99276.56
2022-12-17T07:12:55.045Z,99273.94
2022-12-17T07:15:40.808Z,99287.31
2022-12-17T07:18:27.607Z,99275.06
2022-12-17T07:21:13.413Z,99272.56
2022-12-17T07:23:59.617Z,99264.25
2022-12-17T07:26:45.392Z,99262.59
2022-12-17T07:29:31.779Z,99268.56
2022-12-17T07:32:17.792Z,99263.34
2022-12-17T07:35:04.200Z,99260.56
2022-12-17T07:37:50.322Z,99253.59
2022-12-17T07:40:36.510Z,99244.22
2022-12-17T07:43:31.767Z,99236.72
2022-12-17T07:46:17.838Z,99243.22
2022-12-17T07:49:04.008Z,99229.81
2022-12-17T07:51:50.046Z,99220.88
2022-12-17T07:54:35.849Z,99210.00
2022-12-17T07:57:22.027Z,99210.75
2022-12-17T08:00:07.581Z,99210.03
2022-12-17T08:02:53.876Z,99193.66
2022-12-17T08:05:40.121Z,99198.13
2022-12-17T08:08:30.118Z,99188.47
2022-12-17T08:11:16.340Z,99183.25
2022-12-17T08:14:02.709Z,99179.34
2022-12-17T08:16:48.477Z,99192.25
2022-12-17T08:19:37.155Z,99190.34
2022-12-17T08:22:22.807Z,99186.50
2022-12-17T08:25:08.671Z,99185.38
2022-12-17T08:27:57.310Z,99183.38
2022-12-17T08:30:43.241Z,99191.19
2022-12-17T08:33:28.965Z,99204.09
2022-12-17T08:36:16.156Z,99204.59
2022-12-17T08:39:02.554Z,99202.44
2022-12-17T08:41:54.206Z,99196.78
2022-12-17T08:44:44.577Z,99191.16
2022-12-17T08:47:29.896Z,99185.59
2022-12-17T08:50:15.407Z,99196.72
2022-12-17T08:53:00.620Z,99192.13
2022-12-17T08:55:46.695Z,99194.56
2022-12-17T08:58:32.499Z,99193.59
2022-12-17T09:01:18.896Z,99196.16
2022-12-17T09:04:05.632Z,99209.50
2022-12-17T09:06:51.556Z,99196.50
2022-12-17T09:09:36.740Z,99187.66
2022-12-17T09:12:22.616Z,99189.28
2022-12-17T09:15:08.093Z,99171.69
2022-12-17T09:17:53.624Z,99162.91
2022-12-17T09:20:39.662Z,99160.19
2022-12-17T09:23:25.110Z,99160.34
2022-12-17T09:26:15.760Z,99151.53
2022-12-17T09:29:01.530Z,99148.00
2022-12-17T09:31:47.342Z,99144.06
2022-12-17T09:34:32.783Z,99141.94
2022-12-17T09:37:18.586Z,99132.59
2022-12-17T09:40:04.125Z,99143.00
2022-12-17T09:43:14.679Z,99150.94
2022-12-17T09:46:40.514Z,99153.19
2022-12-17T09:49:42.514Z,99131.91
2022-12-17T09:52:34.207Z,99134.31
2022-12-17T09:55:20.154Z,99125.75
2022-12-17T09:58:07.500Z,99125.13
2022-12-17T10:00:59.173Z,99130.69
2022-12-17T10:03:48.517Z,99139.91
2022-12-17T10:06:41.030Z,99129.91
2022-12-17T10:09:35.402Z,99118.34
2022-12-17T10:12:40.278Z,99120.81
2022-12-17T10:15:27.009Z,99113.78
2022-12-17T10:18:12.329Z,99104.94
2022-12-17T14:29:13.780Z,98958.81
2022-12-17T14:31:52.092Z,98967.28
2022-12-17T14:34:18.030Z,98967.06
2022-12-17T14:36:44.070Z,98978.00
2022-12-17T14:39:20.469Z,98974.16
2022-12-17T14:42:08.755Z,98968.59
2022-12-17T14:44:38.834Z,98963.84
2022-12-17T14:47:19.863Z,98960.00
2022-12-17T14:50:23.681Z,98950.25
2022-12-17T14:52:54.842Z,98962.09
2022-12-17T14:55:33.844Z,98975.06
2022-12-17T14:58:15.923Z,98990.59
2022-12-17T15:01:05.966Z,99004.31
2022-12-17T15:03:36.776Z,99008.59
2022-12-17T15:06:05.456Z,99018.00
2022-12-17T15:08:34.782Z,99019.59
2022-12-17T15:11:01.220Z,99023.88
2022-12-17T15:13:27.114Z,99023.81
2022-12-17T15:15:53.063Z,99019.41
2022-12-17T15:18:19.038Z,99019.31
2022-12-17T15:20:44.996Z,99017.47
2022-12-17T15:23:18.793Z,99026.16
2022-12-17T15:25:47.386Z,99029.69
2022-12-17T15:28:13.761Z,99025.25
2022-12-17T15:30:39.933Z,99020.03
2022-12-17T15:33:07.427Z,99021.81
2022-12-17T15:35:34.178Z,99028.56
2022-12-17T15:38:00.250Z,99036.41
2022-12-17T15:40:26.252Z,99033.66
2022-12-17T15:43:10.522Z,99049.31
2022-12-17T15:45:50.999Z,99031.91
2022-12-17T15:48:22.784Z,99034.59
2022-12-17T15:50:49.395Z,99044.19
2022-12-17T15:53:15.541Z,99049.44
2022-12-17T15:55:41.824Z,99043.50
2022-12-17T15:58:09.929Z,99055.72
2022-12-17T16:00:36.961Z,99053.13
2022-12-17T16:03:03.729Z,99054.94
2022-12-17T16:05:29.818Z,99060.25
2022-12-17T16:07:58.420Z,99065.41
2022-12-17T16:10:24.776Z,99065.50
2022-12-17T16:12:50.700Z,99067.34
2022-12-17T16:15:16.928Z,99059.47
2022-12-17T16:17:42.861Z,99062.25
2022-12-17T16:20:09.490Z,99062.28
2022-12-17T16:22:36.329Z,99069.25
2022-12-17T16:25:02.349Z,99065.81
2022-12-17T16:27:28.348Z,99081.47
2022-12-17T16:29:54.342Z,99084.00
2022-12-17T16:32:20.411Z,99085.84
2022-12-17T16:34:46.545Z,99092.88
2022-12-17T16:37:12.495Z,99103.22
2022-12-17T16:39:38.530Z,99102.44
2022-12-17T16:42:04.529Z,99100.84
2022-12-17T16:44:30.515Z,99117.41
2022-12-17T16:46:56.561Z,99120.06
2022-12-17T16:49:26.407Z,99127.09
2022-12-17T16:51:53.551Z,99140.16
2022-12-17T16:54:26.432Z,99133.97
2022-12-17T16:56:54.856Z,99127.94
2022-12-17T16:59:22.629Z,99135.75
2022-12-17T17:01:50.568Z,99136.69
2022-12-17T17:04:19.069Z,99134.84
2022-12-17T17:06:47.988Z,99154.88
2022-12-17T17:09:14.681Z,99163.63
2022-12-17T17:11:42.605Z,99163.63
2022-12-17T17:14:10.938Z,99155.84
2022-12-17T17:16:37.296Z,99172.38
2022-12-17T17:19:04.627Z,99169.78
2022-12-17T17:21:33.635Z,99170.88
2022-12-17T17:24:02.265Z,99170.94
2022-12-17T17:26:31.247Z,99174.38
2022-12-17T17:28:57.680Z,99170.09
2022-12-17T17:31:46.391Z,99177.94
2022-12-17T17:34:12.992Z,99183.19
2022-12-17T17:36:39.940Z,99174.50
2022-12-17T17:39:06.209Z,99170.19
2022-12-17T17:41:34.414Z,99177.97
2022-12-17T17:44:10.499Z,99166.78
2022-12-17T17:46:37.043Z,99166.97
2022-12-17T17:49:05.420Z,99169.59
2022-12-17T17:52:08.547Z,99185.19
2022-12-17T17:54:23.494Z,99194.91
2022-12-17T17:56:49.457Z,99203.66
2022-12-17T17:59:18.706Z,99220.25
2022-12-17T18:01:47.376Z,99228.06
2022-12-17T18:04:17.472Z,99236.88
2022-12-17T18:07:02.570Z,99235.91
2022-12-17T18:09:38.850Z,99242.19
2022-12-17T18:12:27.964Z,99243.13
2022-12-17T18:17:44.156Z,99277.03
2022-12-17T18:20:12.063Z,99273.53
2022-12-17T18:22:38.922Z,99273.44
2022-12-17T18:25:05.955Z,99278.72
2022-12-17T18:27:32.856Z,99280.47
2022-12-17T18:30:00.205Z,99286.63
2022-12-17T18:32:27.143Z,99300.50
2022-12-17T18:34:54.171Z,99303.16
2022-12-17T18:37:21.288Z,99304.94
2022-12-17T18:39:48.959Z,99310.09
2022-12-17T18:42:34.877Z,99307.53
2022-12-17T18:45:02.003Z,99298.81
2022-12-17T18:47:29.054Z,99306.66
2022-12-17T18:49:56.352Z,99303.16
2022-12-17T18:52:24.932Z,99306.72
2022-12-17T18:54:52.149Z,99304.97
2022-12-17T18:57:19.535Z,99302.34
2022-12-17T18:59:46.872Z,99308.63
2022-12-17T19:02:15.038Z,99309.38
2022-12-17T19:04:42.379Z,99332.03
2022-12-17T19:07:10.102Z,99345.09
2022-12-17T19:09:38.837Z,99350.31
2022-12-17T19:12:07.819Z,99363.38
2022-12-17T19:14:35.658Z,99353.91
2022-12-17T19:17:03.258Z,99359.91
2022-12-17T19:19:30.530Z,99370.38
2022-12-17T19:21:59.761Z,99370.25
2022-12-17T19:24:26.980Z,99373.81
2022-12-17T19:26:53.909Z,99370.31
2022-12-17T19:29:21.906Z,99387.69
2022-12-17T19:31:49.360Z,99406.00
2022-12-17T19:34:18.898Z,99406.03
2022-12-17T19:36:46.768Z,99407.75
2022-12-17T19:39:18.062Z,99407.78
2022-12-17T19:41:45.822Z,99416.50
2022-12-17T19:44:16.566Z,99423.44
2022-12-17T19:46:47.782Z,99433.88
2022-12-17T19:49:17.832Z,99442.59
2022-12-17T19:51:45.998Z,99437.41
2022-12-17T19:54:15.547Z,99464.38
2022-12-17T19:56:45.232Z,99456.56
2022-12-17T19:59:13.335Z,99451.34
2022-12-17T20:01:44.122Z,99463.53
2022-12-17T20:04:14.486Z,99467.88
2022-12-17T20:06:42.641Z,99473.03
2022-12-17T20:09:10.269Z,99463.56
2022-12-17T20:11:39.024Z,99476.63
2022-12-17T20:14:18.833Z,99471.41
2022-12-17T20:16:49.596Z,99477.47
2022-12-17T20:19:22.777Z,99495.75
2022-12-17T20:21:51.135Z,99496.63
2022-12-17T20:24:18.790Z,99491.41
2022-12-17T20:26:48.347Z,99508.78
2022-12-17T20:29:15.737Z,99509.63
2022-12-17T20:31:49.525Z,99511.41
2022-12-17T20:34:19.901Z,99519.22
2022-12-17T20:36:46.783Z,99518.31
2022-12-17T20:39:13.911Z,99513.09
2022-12-17T20:41:41.907Z,99525.28
2022-12-17T20:44:13.035Z,99527.88
2022-12-17T20:46:41.348Z,99531.38
2022-12-17T20:49:10.830Z,99545.34
2022-12-17T20:51:38.583Z,99560.06
2022-12-17T20:54:05.920Z,99555.72
2022-12-17T20:56:34.293Z,99560.03
2022-12-17T20:59:04.551Z,99558.38
2022-12-17T21:01:34.728Z,99568.78
2022-12-17T21:04:02.759Z,99579.22
2022-12-17T21:06:57.243Z,99587.03
2022-12-17T21:09:25.693Z,99588.84
2022-12-17T21:11:52.671Z,99594.03
2022-12-17T21:14:20.023Z,99600.13
2022-12-17T21:16:48.254Z,99608.84
2022-12-17T21:19:18.564Z,99614.06
2022-12-17T21:21:45.818Z,99613.16
2022-12-17T21:24:13.107Z,99621.94
2022-12-17T21:26:42.905Z,99613.25
2022-12-17T21:29:13.218Z,99618.41
2022-12-17T21:31:44.387Z,99607.16
2022-12-17T21:34:15.686Z,99626.31
2022-12-17T21:36:43.416Z,99641.97
2022-12-17T21:39:14.232Z,99642.88
2022-12-17T21:41:44.609Z,99659.34
2022-12-17T21:44:15.155Z,99667.19
2022-12-17T21:46:42.941Z,99673.28
2022-12-17T21:49:10.556Z,99667.19
2022-12-17T21:51:37.782Z,99675.91
2022-12-17T21:54:08.245Z,99681.09
2022-12-17T21:56:36.415Z,99686.31
2022-12-17T21:59:04.092Z,99700.16
2022-12-17T22:01:33.497Z,99705.38
2022-12-17T22:04:03.038Z,99709.72
2022-12-17T22:06:36.870Z,99721.00
2022-12-17T22:09:15.081Z,99724.50
2022-12-17T22:12:15.851Z,99728.81
2022-12-17T22:14:43.625Z,99720.16
2022-12-17T22:17:11.230Z,99731.41
2022-12-17T22:19:40.835Z,99727.09
2022-12-17T22:22:08.544Z,99734.88
2022-12-17T22:24:36.863Z,99746.13
2022-12-17T22:27:09.135Z,99750.47
2022-12-17T22:29:56.031Z,99752.22
2022-12-17T22:32:42.048Z,99756.53
2022-12-17T22:36:17.601Z,99759.13
2022-12-17T22:39:49.532Z,99766.91
2022-12-17T22:44:31.316Z,99775.59
2022-12-17T22:44:37.956Z,99772.13
2022-12-17T22:46:20.344Z,99780.81
2022-12-17T22:48:48.077Z,99792.91
2022-12-17T22:51:19.423Z,99791.16
2022-12-17T22:54:06.140Z,99785.13
2022-12-17T22:57:14.872Z,99792.03
2022-12-17T22:59:26.142Z,99789.44
2022-12-17T23:01:53.045Z,99802.44
2022-12-17T23:04:19.999Z,99815.38
2022-12-17T23:06:46.838Z,99815.41
2022-12-17T23:09:15.852Z,99824.09
2022-12-17T23:11:42.623Z,99821.50
2022-12-17T23:14:09.959Z,99823.19
2022-12-17T23:16:41.343Z,99823.22
2022-12-17T23:19:08.962Z,99834.50
2022-12-17T23:21:36.312Z,99841.41
2022-12-17T23:24:04.876Z,99846.63
2022-12-17T23:26:35.078Z,99850.13
2022-12-17T23:29:05.215Z,99855.31
2022-12-17T23:31:36.669Z,99857.00
2022-12-17T23:34:04.897Z,99859.56
2022-12-17T23:36:31.786Z,99855.28
2022-12-17T23:38:59.448Z,99862.19
2022-12-17T23:41:30.551Z,99872.50
2022-12-17T23:43:58.844Z,99875.94
2022-12-17T23:46:28.467Z,99875.06
2022-12-17T23:48:56.291Z,99880.25
2022-12-17T23:51:25.025Z,99884.56
2022-12-17T23:53:52.360Z,99888.91
2022-12-17T23:56:22.283Z,99883.63
2022-12-17T23:58:53.475Z,99874.97
